createdAt,value
2023-05-05T00:02:53.818Z,11.69
2023-05-05T00:05:56.906Z,11.50
2023-05-05T00:08:59.654Z,11.42
2023-05-05T00:12:03.066Z,11.39
2023-05-05T00:15:06.519Z,11.31
2023-05-05T00:18:10.027Z,11.28
2023-05-05T00:21:13.389Z,11.34
2023-05-05T00:24:16.369Z,11.34
2023-05-05T00:27:19.104Z,11.26
2023-05-05T00:30:22.442Z,11.30
2023-05-05T00:33:25.942Z,11.38
2023-05-05T00:36:28.788Z,11.45
2023-05-05T00:39:31.670Z,11.43
2023-05-05T00:42:48.342Z,11.41
2023-05-05T00:46:03.831Z,11.26
2023-05-05T00:49:07.244Z,11.22
2023-05-05T00:52:10.982Z,11.17
2023-05-05T00:55:13.852Z,11.17
2023-05-05T00:58:17.188Z,11.18
2023-05-05T01:01:20.404Z,11.23
2023-05-05T01:04:23.293Z,11.17
2023-05-05T01:07:47.527Z,11.20
2023-05-05T01:11:01.572Z,11.04
2023-05-05T01:14:18.065Z,11.09
2023-05-05T01:17:24.697Z,11.09
2023-05-05T01:20:33.266Z,11.11
2023-05-05T01:24:08.031Z,11.18
2023-05-05T01:27:19.511Z,11.09
2023-05-05T01:30:25.054Z,11.12
2023-05-05T01:33:32.585Z,11.10
2023-05-05T01:36:39.907Z,11.02
2023-05-05T01:39:44.832Z,11.02
2023-05-05T01:42:49.208Z,10.99
2023-05-05T01:45:53.913Z,10.76
2023-05-05T01:48:59.104Z,10.57
2023-05-05T01:52:03.900Z,10.57
2023-05-05T01:55:08.675Z,10.56
2023-05-05T01:58:13.983Z,10.60
2023-05-05T02:01:18.969Z,10.66
2023-05-05T02:04:23.364Z,10.66
2023-05-05T02:07:27.602Z,10.68
2023-05-05T02:10:31.230Z,10.74
2023-05-05T02:13:35.356Z,10.71
2023-05-05T02:16:41.414Z,10.70
2023-05-05T02:19:46.429Z,10.51
2023-05-05T02:22:49.791Z,10.45
2023-05-05T02:25:56.614Z,10.41
2023-05-05T02:29:07.584Z,10.48
2023-05-05T02:32:17.218Z,10.54
2023-05-05T02:35:28.641Z,10.54
2023-05-05T02:38:32.879Z,10.37
2023-05-05T02:41:39.727Z,10.14
2023-05-05T02:44:51.690Z,10.07
2023-05-05T02:47:55.473Z,10.12
2023-05-05T02:50:59.747Z,10.16
2023-05-05T02:54:11.965Z,10.17
2023-05-05T02:57:18.629Z,10.17
2023-05-05T03:00:40.303Z,10.27
2023-05-05T03:03:54.745Z,10.29
2023-05-05T03:07:04.869Z,10.40
2023-05-05T03:10:15.441Z,10.31
2023-05-05T03:13:27.022Z,10.26
2023-05-05T03:16:32.321Z,10.15
2023-05-05T03:19:39.018Z,10.23
2023-05-05T03:22:41.826Z,10.19
2023-05-05T03:25:49.900Z,10.23
2023-05-05T03:29:14.226Z,10.23
2023-05-05T03:32:17.240Z,10.17
2023-05-05T03:35:20.448Z,10.15
2023-05-05T03:38:23.474Z,10.16
2023-05-05T03:41:27.783Z,10.25
2023-05-05T03:44:31.147Z,10.24
2023-05-05T03:47:34.352Z,10.17
2023-05-05T03:50:37.728Z,10.16
2023-05-05T03:53:40.787Z,10.12
2023-05-05T03:56:44.806Z,10.13
2023-05-05T03:59:48.402Z,10.12
2023-05-05T04:02:52.035Z,9.91
2023-05-05T04:05:56.013Z,9.96
2023-05-05T04:08:58.843Z,10.08
2023-05-05T04:12:03.227Z,10.16
2023-05-05T04:15:07.061Z,10.22
2023-05-05T04:18:10.725Z,10.36
2023-05-05T04:21:14.142Z,10.57
2023-05-05T04:24:19.278Z,10.83
2023-05-05T04:27:22.325Z,10.99
2023-05-05T04:30:25.459Z,11.19
2023-05-05T04:33:28.578Z,11.23
2023-05-05T04:36:31.721Z,11.42
2023-05-05T04:39:35.415Z,11.42
2023-05-05T04:42:40.022Z,11.41
2023-05-05T04:45:53.014Z,11.50
2023-05-05T04:48:59.256Z,11.75
2023-05-05T04:52:02.294Z,11.93
2023-05-05T04:55:05.787Z,12.02
2023-05-05T04:58:09.411Z,12.13
2023-05-05T05:01:12.193Z,12.24
2023-05-05T05:04:18.680Z,12.45
2023-05-05T05:07:21.743Z,12.51
2023-05-05T05:10:24.532Z,12.68
2023-05-05T05:13:27.387Z,12.89
2023-05-05T05:16:30.275Z,12.95
2023-05-05T05:19:33.323Z,13.16
2023-05-05T05:22:38.911Z,13.25
2023-05-05T05:25:46.245Z,13.35
2023-05-05T05:28:51.360Z,13.57
2023-05-05T05:31:54.422Z,13.64
2023-05-05T05:34:57.329Z,13.80
2023-05-05T05:38:00.129Z,14.02
2023-05-05T05:41:07.812Z,14.21
2023-05-05T05:44:12.661Z,14.35
2023-05-05T05:47:15.818Z,14.48
2023-05-05T05:50:19.191Z,14.58
2023-05-05T05:53:22.323Z,14.70
2023-05-05T05:56:25.945Z,14.82
2023-05-05T05:59:29.521Z,14.96
2023-05-05T06:02:32.802Z,15.12
2023-05-05T06:05:35.878Z,15.17
2023-05-05T06:08:38.985Z,15.30
2023-05-05T06:11:42.631Z,15.32
2023-05-05T06:14:45.411Z,15.50
2023-05-05T06:17:48.303Z,15.73
2023-05-05T06:20:52.489Z,15.84
2023-05-05T06:23:57.677Z,15.93
2023-05-05T06:27:00.673Z,16.00
2023-05-05T06:30:03.916Z,16.16
2023-05-05T06:33:06.811Z,16.25
2023-05-05T06:36:09.829Z,16.37
2023-05-05T06:39:14.022Z,16.56
2023-05-05T06:42:19.090Z,16.70
2023-05-05T06:45:22.368Z,16.93
2023-05-05T06:48:25.156Z,17.07
2023-05-05T06:51:27.939Z,17.19
2023-05-05T06:54:30.832Z,17.17
2023-05-05T06:57:33.823Z,17.25
2023-05-05T07:00:36.822Z,17.33
2023-05-05T07:03:39.761Z,17.48
2023-05-05T07:06:42.599Z,17.56
2023-05-05T07:09:45.611Z,17.69
2023-05-05T07:12:48.859Z,17.78
2023-05-05T07:15:51.600Z,17.85
2023-05-05T07:18:54.423Z,17.92
2023-05-05T07:21:57.281Z,17.93
2023-05-05T07:25:00.159Z,18.08
2023-05-05T07:28:03.919Z,17.90
2023-05-05T07:31:06.764Z,18.12
2023-05-05T07:34:09.625Z,18.29
2023-05-05T07:37:13.114Z,18.49
2023-05-05T07:40:17.218Z,18.60
2023-05-05T07:43:20.002Z,18.72
2023-05-05T07:46:22.874Z,18.77
2023-05-05T07:49:26.918Z,18.97
2023-05-05T07:52:44.350Z,18.92
2023-05-05T07:55:51.431Z,19.07
2023-05-05T07:58:54.605Z,19.16
2023-05-05T08:01:57.334Z,19.29
2023-05-05T08:05:00.885Z,19.36
2023-05-05T08:08:03.885Z,18.66
2023-05-05T08:11:06.950Z,18.54
2023-05-05T08:14:09.829Z,18.98
2023-05-05T08:17:12.654Z,19.72
2023-05-05T08:20:16.661Z,19.99
2023-05-05T08:23:19.459Z,19.67
2023-05-05T08:26:23.003Z,19.33
2023-05-05T08:29:25.810Z,19.92
2023-05-05T08:32:29.981Z,20.25
2023-05-05T08:35:32.838Z,20.45
2023-05-05T08:38:35.674Z,20.22
2023-05-05T08:41:38.518Z,20.23
2023-05-05T08:44:41.425Z,20.98
2023-05-05T08:47:44.405Z,20.87
2023-05-05T08:50:52.959Z,20.73
2023-05-05T08:53:56.046Z,20.55
2023-05-05T08:57:02.445Z,19.91
2023-05-05T09:00:06.303Z,19.43
2023-05-05T09:03:10.159Z,20.06
2023-05-05T09:06:13.582Z,20.49
2023-05-05T09:09:17.680Z,21.00
2023-05-05T09:12:21.995Z,20.83
2023-05-05T09:15:24.813Z,20.93
2023-05-05T09:18:27.577Z,21.24
2023-05-05T09:21:30.580Z,21.54
2023-05-05T09:24:33.712Z,21.17
2023-05-05T09:27:38.624Z,21.75
2023-05-05T09:30:43.458Z,21.35
2023-05-05T09:33:46.695Z,21.41
2023-05-05T09:36:49.550Z,21.01
2023-05-05T09:39:55.713Z,21.29
2023-05-05T09:43:02.639Z,21.92
2023-05-05T09:46:07.883Z,22.62
2023-05-05T09:49:18.883Z,22.84
2023-05-05T09:52:22.125Z,23.02
2023-05-05T09:55:25.635Z,23.15
2023-05-05T09:58:30.156Z,23.51
2023-05-05T10:01:33.006Z,23.47
2023-05-05T10:04:36.197Z,23.56
2023-05-05T10:07:41.183Z,23.30
2023-05-05T10:10:50.660Z,23.23
2023-05-05T10:13:53.942Z,23.80
2023-05-05T10:16:57.925Z,23.70
2023-05-05T10:20:02.188Z,23.76
2023-05-05T10:23:08.347Z,23.23
2023-05-05T10:26:14.453Z,22.88
2023-05-05T10:29:42.880Z,23.67
2023-05-05T10:33:03.475Z,23.25
2023-05-05T10:36:15.106Z,22.96
2023-05-05T10:39:20.161Z,23.62
2023-05-05T10:42:24.377Z,23.29
2023-05-05T10:45:27.780Z,23.06
2023-05-05T10:48:41.340Z,22.82
2023-05-05T10:51:58.156Z,23.52
2023-05-05T10:55:22.161Z,23.68
2023-05-05T10:58:47.134Z,23.83
2023-05-05T11:01:58.682Z,23.45
2023-05-05T11:05:18.426Z,22.88
2023-05-05T11:08:27.285Z,22.93
2023-05-05T11:12:03.246Z,23.55
2023-05-05T11:15:24.219Z,22.87
2023-05-05T11:18:37.638Z,22.98
2023-05-05T11:22:00.972Z,22.77
2023-05-05T11:25:42.226Z,22.63
2023-05-05T11:28:56.535Z,22.68
2023-05-05T11:32:13.241Z,22.55
2023-05-05T11:35:16.398Z,22.90
2023-05-05T11:38:26.132Z,22.87
2023-05-05T11:41:34.354Z,23.42
2023-05-05T11:44:37.693Z,23.82
2023-05-05T11:47:40.562Z,24.65
2023-05-05T11:50:43.731Z,25.01
2023-05-05T11:53:49.161Z,24.72
2023-05-05T11:56:56.795Z,24.39
2023-05-05T12:00:02.233Z,24.78
2023-05-05T12:03:08.176Z,24.89
2023-05-05T12:06:11.137Z,24.88
2023-05-05T12:09:21.313Z,23.58
2023-05-05T12:12:42.484Z,22.94
2023-05-05T12:15:45.559Z,23.29
2023-05-05T12:19:02.851Z,23.61
2023-05-05T12:22:05.779Z,23.18
2023-05-05T12:25:09.333Z,22.62
2023-05-05T12:28:12.115Z,22.42
2023-05-05T12:31:16.104Z,23.01
2023-05-05T12:34:19.360Z,22.93
2023-05-05T12:37:23.186Z,22.95
2023-05-05T12:40:47.098Z,23.50
2023-05-05T12:43:56.187Z,23.39
2023-05-05T12:46:59.341Z,23.82
2023-05-05T12:50:03.449Z,23.79
2023-05-05T12:53:07.554Z,24.01
2023-05-05T12:56:32.926Z,24.30
2023-05-05T12:59:36.401Z,24.07
2023-05-05T13:02:39.162Z,24.07
2023-05-05T13:05:42.257Z,23.97
2023-05-05T13:08:46.133Z,23.61
2023-05-05T13:11:49.215Z,23.48
2023-05-05T13:14:52.007Z,24.04
2023-05-05T13:18:01.606Z,24.34
2023-05-05T13:21:04.737Z,24.73
2023-05-05T13:27:13.366Z,24.85
2023-05-05T13:30:16.132Z,25.31
2023-05-05T13:33:18.845Z,25.11
2023-05-05T13:36:21.869Z,25.44
2023-05-05T13:39:24.661Z,25.43
2023-05-05T13:42:27.589Z,25.96
2023-05-05T13:45:30.415Z,26.01
2023-05-05T13:48:42.013Z,25.69
2023-05-05T13:51:47.140Z,26.10
2023-05-05T13:54:50.200Z,25.10
2023-05-05T13:57:52.962Z,24.84
2023-05-05T14:00:56.382Z,25.92
2023-05-05T14:03:59.785Z,26.39
2023-05-05T14:07:04.962Z,26.30
2023-05-05T14:10:08.408Z,25.64
2023-05-05T14:13:11.362Z,24.25
2023-05-05T14:16:14.185Z,23.98
2023-05-05T14:19:17.052Z,25.60
2023-05-05T14:22:19.838Z,26.83
2023-05-05T14:25:22.595Z,26.35
2023-05-05T14:28:25.543Z,26.09
2023-05-05T14:31:28.846Z,26.17
2023-05-05T14:34:32.149Z,25.71
2023-05-05T14:37:35.078Z,26.06
2023-05-05T14:40:37.853Z,26.55
2023-05-05T14:43:41.085Z,26.88
2023-05-05T14:46:46.001Z,26.83
2023-05-05T14:49:49.153Z,26.71
2023-05-05T14:52:51.923Z,26.51
2023-05-05T14:55:54.991Z,26.46
2023-05-05T14:58:58.748Z,26.64
2023-05-05T15:02:01.780Z,26.55
2023-05-05T15:05:05.321Z,26.91
2023-05-05T15:08:08.395Z,27.04
2023-05-05T15:11:11.103Z,27.41
2023-05-05T15:14:13.844Z,27.35
2023-05-05T15:17:17.532Z,27.23
2023-05-05T15:20:20.755Z,27.73
2023-05-05T15:23:23.576Z,27.40
2023-05-05T15:26:26.781Z,26.53
2023-05-05T15:29:29.542Z,26.15
2023-05-05T15:32:32.309Z,26.80
2023-05-05T15:35:36.315Z,26.94
2023-05-05T15:38:45.130Z,27.12
2023-05-05T15:41:48.333Z,25.60
2023-05-05T15:44:51.565Z,25.82
2023-05-05T15:47:54.573Z,26.61
2023-05-05T15:50:57.439Z,26.54
2023-05-05T15:54:00.420Z,26.05
2023-05-05T15:57:03.370Z,26.16
2023-05-05T16:00:08.494Z,26.84
2023-05-05T16:03:19.079Z,26.72
2023-05-05T16:06:24.967Z,26.27
2023-05-05T16:09:27.826Z,26.22
2023-05-05T16:12:30.691Z,25.56
2023-05-05T16:15:35.362Z,25.01
2023-05-05T16:18:38.249Z,24.92
2023-05-05T16:21:41.029Z,24.44
2023-05-05T16:24:44.443Z,24.07
2023-05-05T16:27:47.252Z,23.75
2023-05-05T16:30:49.987Z,23.48
2023-05-05T16:33:53.049Z,23.20
2023-05-05T16:36:56.187Z,23.09
2023-05-05T16:40:00.844Z,22.88
2023-05-05T16:43:05.828Z,22.65
2023-05-05T16:46:10.029Z,22.69
2023-05-05T16:49:12.738Z,22.57
2023-05-05T16:52:15.611Z,22.52
2023-05-05T16:55:18.563Z,22.38
2023-05-05T16:58:22.950Z,22.32
2023-05-05T17:01:25.834Z,22.16
2023-05-05T17:04:28.963Z,21.94
2023-05-05T17:07:31.750Z,21.76
2023-05-05T17:10:34.524Z,21.75
2023-05-05T17:13:37.704Z,21.54
2023-05-05T17:16:40.738Z,21.38
2023-05-05T17:19:44.912Z,21.09
2023-05-05T17:22:47.808Z,21.00
2023-05-05T17:25:50.827Z,20.90
2023-05-05T17:28:53.713Z,20.92
2023-05-05T17:31:56.892Z,20.78
2023-05-05T17:34:59.877Z,20.72
2023-05-05T17:38:02.619Z,20.59
2023-05-05T17:41:05.410Z,20.60
2023-05-05T17:44:08.233Z,20.40
2023-05-05T17:47:11.024Z,20.23
2023-05-05T17:50:13.844Z,20.09
2023-05-05T17:53:16.698Z,19.85
2023-05-05T17:56:19.402Z,19.74
2023-05-05T17:59:22.355Z,19.52
2023-05-05T18:02:25.629Z,19.38
2023-05-05T18:05:28.655Z,19.35
2023-05-05T18:08:31.708Z,19.19
2023-05-05T18:11:34.607Z,18.95
2023-05-05T18:14:37.472Z,18.98
2023-05-05T18:17:40.531Z,18.76
2023-05-05T18:20:44.084Z,18.62
2023-05-05T18:23:46.872Z,18.46
2023-05-05T18:26:51.058Z,18.42
2023-05-05T18:29:53.861Z,18.39
2023-05-05T18:32:56.843Z,18.26
2023-05-05T18:35:59.665Z,18.14
2023-05-05T18:39:02.442Z,18.08
2023-05-05T18:42:05.528Z,18.03
2023-05-05T18:45:10.712Z,17.95
2023-05-05T18:48:13.672Z,17.85
2023-05-05T18:51:16.957Z,17.72
2023-05-05T18:54:21.362Z,17.69
2023-05-05T18:57:24.228Z,17.68
2023-05-05T19:00:26.978Z,17.66
2023-05-05T19:03:30.132Z,17.56
2023-05-05T19:06:33.039Z,17.54
2023-05-05T19:09:36.208Z,17.46
2023-05-05T19:12:39.534Z,17.36
2023-05-05T19:15:42.463Z,17.23
2023-05-05T19:18:45.267Z,17.07
2023-05-05T19:21:48.388Z,16.91
2023-05-05T19:24:51.128Z,16.77
2023-05-05T19:27:54.229Z,16.63
2023-05-05T19:30:57.058Z,16.60
2023-05-05T19:34:02.510Z,16.42
2023-05-05T19:37:05.506Z,16.52
2023-05-05T19:40:09.065Z,16.48
2023-05-05T19:43:12.014Z,16.33
2023-05-05T19:46:14.907Z,16.15
2023-05-05T19:49:18.816Z,16.21
2023-05-05T19:52:22.828Z,16.05
2023-05-05T19:55:25.863Z,16.08
2023-05-05T19:58:28.923Z,15.99
2023-05-05T20:01:33.249Z,15.91
2023-05-05T20:04:36.122Z,15.87
2023-05-05T20:07:39.336Z,15.69
2023-05-05T20:10:42.132Z,15.64
2023-05-05T20:13:45.648Z,15.59
2023-05-05T20:16:48.440Z,15.48
2023-05-05T20:19:51.331Z,15.29
2023-05-05T20:22:54.214Z,15.23
2023-05-05T20:25:57.407Z,15.27
2023-05-05T20:29:00.197Z,15.21
2023-05-05T20:32:03.076Z,15.26
2023-05-05T20:35:06.476Z,15.27
2023-05-05T20:38:09.876Z,15.12
2023-05-05T20:41:12.693Z,15.14
2023-05-05T20:44:15.756Z,15.00
2023-05-05T20:47:18.470Z,14.92
2023-05-05T20:50:21.204Z,14.85
2023-05-05T20:53:25.553Z,14.71
2023-05-05T20:56:28.356Z,14.60
2023-05-05T20:59:31.319Z,14.41
2023-05-05T21:02:34.298Z,14.30
2023-05-05T21:05:37.390Z,14.29
2023-05-05T21:08:40.140Z,14.27
2023-05-05T21:11:43.333Z,14.27
2023-05-05T21:14:46.375Z,14.19
2023-05-05T21:17:49.243Z,14.12
2023-05-05T21:20:52.104Z,14.11
2023-05-05T21:23:57.888Z,14.08
2023-05-05T21:27:00.666Z,13.96
2023-05-05T21:30:03.671Z,13.97
2023-05-05T21:33:06.493Z,13.95
2023-05-05T21:36:09.312Z,13.89
2023-05-05T21:39:12.379Z,13.90
2023-05-05T21:42:16.391Z,13.86
2023-05-05T21:45:19.208Z,13.87
2023-05-05T21:48:21.965Z,13.89
2023-05-05T21:51:24.822Z,13.79
2023-05-05T21:54:27.912Z,13.78
2023-05-05T21:57:30.719Z,13.73
2023-05-05T22:00:33.468Z,13.68
2023-05-05T22:03:36.401Z,13.60
2023-05-05T22:06:39.140Z,13.57
2023-05-05T22:09:41.923Z,13.52
2023-05-05T22:12:45.282Z,13.49
2023-05-05T22:15:48.164Z,13.44
2023-05-05T22:18:51.501Z,13.37
2023-05-05T22:21:54.681Z,13.24
2023-05-05T22:24:57.955Z,13.26
2023-05-05T22:28:00.900Z,13.30
2023-05-05T22:31:03.680Z,13.24
2023-05-05T22:34:06.555Z,13.22
2023-05-05T22:37:09.972Z,13.18
2023-05-05T22:40:13.678Z,13.15
2023-05-05T22:43:16.637Z,13.04
2023-05-05T22:46:19.530Z,12.89
2023-05-05T22:49:22.984Z,12.91
2023-05-05T22:52:28.344Z,12.97
2023-05-05T22:55:31.639Z,12.88
2023-05-05T22:58:34.346Z,12.85
2023-05-05T23:01:37.340Z,12.86
2023-05-05T23:04:40.183Z,12.88
2023-05-05T23:07:42.950Z,12.84
2023-05-05T23:10:45.786Z,12.78
2023-05-05T23:13:48.645Z,12.72
2023-05-05T23:16:51.721Z,12.69
2023-05-05T23:19:54.737Z,12.66
2023-05-05T23:22:57.511Z,12.56
2023-05-05T23:26:00.479Z,12.59
2023-05-05T23:29:03.995Z,12.45
2023-05-05T23:32:06.792Z,12.38
2023-05-05T23:35:10.275Z,12.30
2023-05-05T23:38:13.284Z,12.21
2023-05-05T23:41:16.077Z,12.20
2023-05-05T23:44:18.828Z,12.16
2023-05-05T23:47:21.595Z,12.22
2023-05-05T23:50:25.919Z,12.18
2023-05-05T23:53:28.878Z,12.15
2023-05-05T23:56:31.987Z,11.93
2023-05-05T23:59:34.834Z,11.79
